Aviation Digital Data Service (ADDS)

Output produced by METARs form (0758 UTC 25 April 2019)
found at http://www.aviationweather.gov/metar/data/
 
TAF AMD KVBG 242246Z 2422/2604 27009KT 9000 BR BKN005 QNH2996INS 
     BECMG 2505/2506 VRB06KT 4800 BR BKN010 QNH2997INS 
     BECMG 2508/2509 VRB06KT 2400 BR BKN005 QNH2999INS 
     BECMG 2511/2512 VRB06KT 0800 FG VV001 QNH2996INS 
     BECMG 2515/2516 VRB06KT 3200 BR BKN002 QNH2995INS 
     BECMG 2517/2518 27009KT 9999 NSW FEW009 QNH2992INS 
     BECMG 2519/2520 25009KT 9999 SKC QNH2994INS TX23/2422Z TN11/2512Z LAST NO
AMDS AFT 2500 NEXT 2514